Time;durP1;ratioP1;P1;durP2;ratioP2;P2;SDS_P1;SDS_P2;PMS_P1;PMS_P2;Temp;Humidity;BMP_temperature;BMP_pressure;BME280_temperature;BME280_humidity;BME280_pressure;Samples;Min_cycle;Max_cycle;Signal;HPM_P1;HPM_P2
2023/09/16 00:01:16;;;;;;;8.40;7.47;;;15.50;99.90;;;;;;5000448;28;20164;-60
2023/09/16 00:03:41;;;;;;;9.10;7.65;;;15.50;99.90;;;;;;5010233;28;20052;-60
2023/09/16 00:06:07;;;;;;;9.15;8.00;;;15.40;99.90;;;;;;5011567;28;20172;-59
2023/09/16 00:08:33;;;;;;;8.45;7.53;;;15.30;99.90;;;;;;5011121;28;20129;-59
2023/09/16 00:11:02;;;;;;;11.85;7.55;;;15.30;99.90;;;;;;5010146;28;20207;-58
2023/09/16 00:13:28;;;;;;;12.32;8.15;;;15.20;99.90;;;;;;5011236;28;20045;-60
2023/09/16 00:15:54;;;;;;;11.13;8.35;;;15.20;99.90;;;;;;5011590;28;20505;-60
2023/09/16 00:18:20;;;;;;;12.93;9.13;;;15.20;99.90;;;;;;5013295;28;20041;-59
2023/09/16 00:20:49;;;;;;;10.63;9.40;;;15.20;99.90;;;;;;5012614;28;20117;-59
2023/09/16 00:23:15;;;;;;;11.82;9.45;;;15.10;99.90;;;;;;4995209;28;20045;-59
2023/09/16 00:25:42;;;;;;;10.25;9.07;;;15.10;99.90;;;;;;5010737;28;20052;-60
2023/09/16 00:28:08;;;;;;;13.50;9.85;;;15.10;99.90;;;;;;5011493;28;20042;-59
2023/09/16 00:30:35;;;;;;;14.43;10.43;;;15.00;99.90;;;;;;5010675;28;20476;-60
2023/09/16 00:33:03;;;;;;;12.50;10.20;;;15.00;99.90;;;;;;4995260;28;20049;-59
2023/09/16 00:35:29;;;;;;;16.30;12.18;;;15.00;99.90;;;;;;5012803;28;20052;-59
2023/09/16 00:37:55;;;;;;;13.48;11.68;;;15.00;99.90;;;;;;5009298;28;20045;-60
2023/09/16 00:40:21;;;;;;;13.60;11.35;;;14.90;99.90;;;;;;5008753;28;20524;-59
2023/09/16 00:42:47;;;;;;;14.98;11.77;;;14.90;99.90;;;;;;5010514;28;20173;-59
2023/09/16 00:45:14;;;;;;;15.23;11.65;;;14.90;99.90;;;;;;5024063;28;20069;-59
2023/09/16 00:47:41;;;;;;;14.30;11.60;;;14.80;99.90;;;;;;5010216;28;20044;-58
2023/09/16 00:50:13;;;;;;;17.15;11.10;;;14.80;99.90;;;;;;4990917;28;20134;-60
2023/09/16 00:52:50;;;;;;;15.27;12.57;;;14.70;99.90;;;;;;5010359;28;20041;-59
2023/09/16 00:55:16;;;;;;;18.00;12.45;;;14.70;99.90;;;;;;4994383;28;20080;-58
2023/09/16 00:57:46;;;;;;;16.80;13.10;;;14.70;99.90;;;;;;4980330;28;20084;-59
2023/09/16 01:00:13;;;;;;;16.67;13.07;;;14.60;99.90;;;;;;5009767;28;20393;-58
2023/09/16 01:02:38;;;;;;;17.50;13.70;;;14.60;99.90;;;;;;5010740;28;20485;-60
2023/09/16 01:05:08;;;;;;;16.88;13.90;;;14.60;99.90;;;;;;4994365;28;20087;-59
2023/09/16 01:07:34;;;;;;;25.40;15.48;;;14.60;99.90;;;;;;5009919;28;20401;-59
2023/09/16 01:10:00;;;;;;;16.38;13.45;;;14.50;99.90;;;;;;5008617;28;20132;-59
2023/09/16 01:12:25;;;;;;;18.25;12.93;;;14.50;99.90;;;;;;5008816;28;20045;-59
2023/09/16 01:14:51;;;;;;;15.80;12.52;;;14.50;99.90;;;;;;5006492;28;20549;-59
2023/09/16 01:17:34;;;;;;;14.18;11.68;;;14.50;99.90;;;;;;5007502;28;20048;-59
2023/09/16 01:20:06;;;;;;;15.82;14.18;;;14.50;99.90;;;;;;4991940;28;20049;-59
2023/09/16 01:22:33;;;;;;;17.10;13.70;;;14.40;99.90;;;;;;4982241;28;20441;-59
2023/09/16 01:25:05;;;;;;;17.05;13.45;;;14.40;99.90;;;;;;4995162;28;20564;-60
2023/09/16 01:27:30;;;;;;;15.68;13.40;;;14.40;99.90;;;;;;5006490;28;20045;-60
2023/09/16 01:29:56;;;;;;;14.63;12.95;;;14.30;99.90;;;;;;5006090;28;20041;-59
2023/09/16 01:32:30;;;;;;;15.40;12.40;;;14.30;99.90;;;;;;5007214;28;20037;-59
2023/09/16 01:34:59;;;;;;;16.23;14.32;;;14.30;99.90;;;;;;5018725;28;20108;-59
2023/09/16 01:37:25;;;;;;;15.35;12.63;;;14.20;99.90;;;;;;5009884;28;20467;-59
2023/09/16 01:39:59;;;;;;;19.08;14.88;;;14.20;99.90;;;;;;5012516;28;20041;-59
2023/09/16 01:42:29;;;;;;;17.10;13.48;;;14.20;99.90;;;;;;5011461;28;20073;-58
2023/09/16 01:44:54;;;;;;;17.15;13.48;;;14.10;99.90;;;;;;5014245;28;20072;-59
2023/09/16 01:47:21;;;;;;;14.40;12.90;;;14.10;99.90;;;;;;5011060;28;20172;-59
2023/09/16 01:49:47;;;;;;;15.98;13.25;;;14.10;99.90;;;;;;5014112;28;20034;-59
2023/09/16 01:52:16;;;;;;;17.10;14.75;;;14.10;99.90;;;;;;5009190;28;20730;-59
2023/09/16 01:54:42;;;;;;;16.25;14.18;;;14.10;99.90;;;;;;5013686;28;20069;-59
2023/09/16 01:57:07;;;;;;;15.73;13.65;;;14.00;99.90;;;;;;5014177;28;20124;-60
2023/09/16 01:59:33;;;;;;;14.52;13.05;;;14.00;99.90;;;;;;5013528;28;20040;-59
2023/09/16 02:01:59;;;;;;;14.90;12.80;;;14.00;99.90;;;;;;4995781;28;20041;-59
2023/09/16 02:04:25;;;;;;;14.85;13.20;;;14.00;99.90;;;;;;5011882;28;20056;-59
2023/09/16 02:06:50;;;;;;;15.07;13.50;;;14.00;99.90;;;;;;5012225;28;20040;-59
2023/09/16 02:09:16;;;;;;;17.30;14.40;;;14.00;99.90;;;;;;5006859;28;20461;-59
2023/09/16 02:11:42;;;;;;;16.45;14.27;;;14.00;99.90;;;;;;5004462;28;20128;-59
2023/09/16 02:14:18;;;;;;;16.05;14.35;;;14.00;99.90;;;;;;5010325;28;20641;-59
2023/09/16 02:16:45;;;;;;;16.30;14.57;;;13.90;99.90;;;;;;5011947;28;20497;-59
2023/09/16 02:19:11;;;;;;;17.35;13.95;;;13.90;99.90;;;;;;5012201;28;20382;-60
2023/09/16 02:21:37;;;;;;;16.08;13.80;;;13.90;99.90;;;;;;5012824;28;20057;-59
2023/09/16 02:24:03;;;;;;;17.05;13.88;;;13.90;99.90;;;;;;5012987;28;20049;-60
2023/09/16 02:26:29;;;;;;;15.32;13.68;;;13.80;99.90;;;;;;5011492;28;20452;-60
2023/09/16 02:28:55;;;;;;;14.20;12.65;;;13.80;99.90;;;;;;4998331;28;20067;-60
2023/09/16 02:31:21;;;;;;;13.48;12.07;;;13.80;99.90;;;;;;5014250;28;20041;-59
2023/09/16 02:33:47;;;;;;;14.10;12.60;;;13.80;99.90;;;;;;5015175;28;20554;-59
2023/09/16 02:36:13;;;;;;;13.35;11.95;;;13.80;99.90;;;;;;5014285;28;20050;-61
2023/09/16 02:38:38;;;;;;;14.23;12.73;;;13.80;99.90;;;;;;4996269;28;20033;-60
2023/09/16 02:41:04;;;;;;;13.00;11.68;;;13.80;99.90;;;;;;5010026;28;20045;-60
2023/09/16 02:43:31;;;;;;;13.80;12.30;;;13.70;99.90;;;;;;5011921;28;20121;-59
2023/09/16 02:45:57;;;;;;;17.25;12.82;;;13.70;99.90;;;;;;5000623;28;20080;-59
2023/09/16 02:48:23;;;;;;;13.35;11.95;;;13.70;99.90;;;;;;5008410;28;20604;-59
2023/09/16 02:50:49;;;;;;;13.68;11.60;;;13.60;99.90;;;;;;5009228;28;20132;-59
2023/09/16 02:53:16;;;;;;;13.82;11.65;;;13.60;99.90;;;;;;4995545;28;20041;-59
2023/09/16 02:55:42;;;;;;;15.20;12.50;;;13.60;99.90;;;;;;5002050;28;20439;-59
2023/09/16 02:58:08;;;;;;;14.02;12.60;;;13.60;99.90;;;;;;5014699;28;20045;-60
2023/09/16 03:00:34;;;;;;;12.48;11.18;;;13.50;99.90;;;;;;5010947;28;21511;-59
2023/09/16 03:02:59;;;;;;;14.48;11.68;;;13.50;99.90;;;;;;5011289;28;20259;-59
2023/09/16 03:05:25;;;;;;;14.52;13.02;;;13.50;99.90;;;;;;5012580;28;20033;-60
2023/09/16 03:07:51;;;;;;;14.00;12.60;;;13.50;99.90;;;;;;5011334;28;20045;-59
2023/09/16 03:10:17;;;;;;;12.27;10.98;;;13.40;99.90;;;;;;5005666;28;20048;-60
2023/09/16 03:12:43;;;;;;;13.13;11.23;;;13.40;99.90;;;;;;5010641;28;20044;-60
2023/09/16 03:15:10;;;;;;;11.50;10.30;;;13.40;99.90;;;;;;5009827;28;20045;-59
2023/09/16 03:17:36;;;;;;;10.55;9.20;;;13.40;99.90;;;;;;5006769;28;20102;-59
2023/09/16 03:20:02;;;;;;;8.93;8.05;;;13.30;99.90;;;;;;5009224;28;20505;-58
2023/09/16 03:22:28;;;;;;;7.28;6.38;;;13.30;99.90;;;;;;5009951;28;20041;-59
2023/09/16 03:24:54;;;;;;;7.40;6.28;;;13.20;99.90;;;;;;4999708;28;20037;-59
2023/09/16 03:27:20;;;;;;;5.80;5.05;;;13.20;99.90;;;;;;4981070;28;20069;-60
2023/09/16 03:29:45;;;;;;;4.60;4.20;;;13.10;99.90;;;;;;4964930;28;20045;-59
2023/09/16 03:32:11;;;;;;;4.43;4.03;;;13.10;99.90;;;;;;5009523;28;20037;-60
2023/09/16 03:34:37;;;;;;;4.30;3.92;;;13.00;99.90;;;;;;5012315;28;20041;-60
2023/09/16 03:37:03;;;;;;;4.32;3.95;;;12.90;99.90;;;;;;5009349;28;20044;-60
2023/09/16 03:39:28;;;;;;;4.53;4.13;;;12.90;99.90;;;;;;5008361;28;20041;-60
2023/09/16 03:41:55;;;;;;;5.00;4.50;;;12.90;99.90;;;;;;5010611;28;20087;-60
2023/09/16 03:44:20;;;;;;;5.95;5.35;;;12.90;99.90;;;;;;5007808;28;20496;-60
2023/09/16 03:46:50;;;;;;;6.70;5.80;;;12.90;99.90;;;;;;5010498;28;20053;-59
2023/09/16 03:49:16;;;;;;;7.35;6.63;;;12.80;99.90;;;;;;5008055;28;20589;-60
2023/09/16 03:51:42;;;;;;;7.90;7.10;;;12.80;99.90;;;;;;4993812;28;20053;-59
2023/09/16 03:54:08;;;;;;;10.85;8.27;;;12.80;99.90;;;;;;5012839;28;20049;-60
2023/09/16 03:56:34;;;;;;;12.13;8.00;;;12.80;99.90;;;;;;5010795;28;20033;-59
2023/09/16 03:59:00;;;;;;;11.07;8.20;;;12.80;99.90;;;;;;5010624;28;20578;-59
2023/09/16 04:01:25;;;;;;;10.23;9.18;;;12.80;99.90;;;;;;5007007;28;20037;-60
2023/09/16 04:03:51;;;;;;;9.20;8.20;;;12.80;99.90;;;;;;5010298;28;20041;-59
2023/09/16 04:06:17;;;;;;;7.25;6.57;;;12.80;99.90;;;;;;5005422;28;20173;-60
2023/09/16 04:08:43;;;;;;;7.35;6.15;;;12.80;99.90;;;;;;5010243;28;20553;-59
2023/09/16 04:11:09;;;;;;;8.93;7.18;;;12.80;99.90;;;;;;5009681;28;20140;-60
2023/09/16 04:13:35;;;;;;;6.85;6.25;;;12.70;99.90;;;;;;5009884;28;20111;-60
2023/09/16 04:16:01;;;;;;;6.68;5.75;;;12.70;99.90;;;;;;4998428;28;20033;-58
2023/09/16 04:18:26;;;;;;;6.38;4.95;;;12.70;99.90;;;;;;5011780;28;20553;-59
2023/09/16 04:20:55;;;;;;;4.78;4.32;;;12.70;99.90;;;;;;5007674;28;20111;-60
2023/09/16 04:23:24;;;;;;;4.20;3.80;;;12.60;99.90;;;;;;4981873;28;20113;-59
2023/09/16 04:25:57;;;;;;;4.78;4.28;;;12.60;99.90;;;;;;5010971;28;20105;-59
2023/09/16 04:28:26;;;;;;;4.57;3.90;;;12.50;99.90;;;;;;4998905;28;20072;-60
2023/09/16 04:30:53;;;;;;;4.00;3.60;;;12.50;99.90;;;;;;5012007;28;20049;-59
2023/09/16 04:33:20;;;;;;;4.07;3.67;;;12.40;99.90;;;;;;4980333;28;20056;-59
2023/09/16 04:35:47;;;;;;;4.97;4.50;;;12.40;99.90;;;;;;5011971;28;20037;-59
2023/09/16 04:38:14;;;;;;;5.35;4.85;;;12.40;99.90;;;;;;4994540;28;20033;-59
2023/09/16 04:40:44;;;;;;;7.90;7.10;;;12.30;99.90;;;;;;5008657;28;20043;-58
2023/09/16 04:43:12;;;;;;;10.13;8.60;;;12.40;99.90;;;;;;5009043;28;20036;-60
2023/09/16 04:45:39;;;;;;;9.15;8.25;;;12.40;99.90;;;;;;4995523;28;20037;-59
2023/09/16 04:48:05;;;;;;;10.23;9.07;;;12.40;99.90;;;;;;5011397;28;20049;-59
2023/09/16 04:50:31;;;;;;;10.70;9.60;;;12.50;99.90;;;;;;5012352;28;20049;-60
2023/09/16 04:53:00;;;;;;;16.25;9.05;;;12.40;99.90;;;;;;5009003;28;20029;-60
2023/09/16 04:55:26;;;;;;;10.60;9.40;;;12.40;99.90;;;;;;4996179;28;20041;-59
2023/09/16 04:57:51;;;;;;;9.13;8.23;;;12.40;99.90;;;;;;5006950;28;20558;-59
2023/09/16 05:00:17;;;;;;;10.70;8.70;;;12.40;99.90;;;;;;5007933;28;20980;-60
2023/09/16 05:02:48;;;;;;;11.18;8.02;;;12.30;99.90;;;;;;5010658;28;20120;-60
2023/09/16 05:05:17;;;;;;;10.27;9.00;;;12.30;99.90;;;;;;4998486;28;20874;-59
2023/09/16 05:07:43;;;;;;;10.05;9.05;;;12.30;99.90;;;;;;5009864;28;20041;-60
2023/09/16 05:10:09;;;;;;;7.00;6.30;;;12.30;99.90;;;;;;5009231;28;20042;-60
2023/09/16 05:12:35;;;;;;;6.95;6.25;;;12.30;99.90;;;;;;5012321;28;20393;-60
2023/09/16 05:15:01;;;;;;;6.22;5.63;;;12.30;99.90;;;;;;4992869;28;20053;-58
2023/09/16 05:17:26;;;;;;;7.80;6.63;;;12.30;99.90;;;;;;4991984;28;20049;-60
2023/09/16 05:19:52;;;;;;;7.65;6.82;;;12.20;99.90;;;;;;4986218;28;20049;-60
2023/09/16 05:22:18;;;;;;;9.05;6.90;;;12.20;99.90;;;;;;4991087;28;20046;-59
2023/09/16 05:24:44;;;;;;;11.38;8.95;;;12.20;99.90;;;;;;5005759;28;20040;-59
2023/09/16 05:27:09;;;;;;;13.48;11.45;;;12.20;99.90;;;;;;5018637;28;20041;-60
2023/09/16 05:29:35;;;;;;;18.50;16.50;;;12.20;99.90;;;;;;5008325;28;20069;-60
2023/09/16 05:32:01;;;;;;;15.18;13.57;;;12.30;99.90;;;;;;5002604;28;20037;-59
2023/09/16 05:34:26;;;;;;;17.92;13.75;;;12.30;99.90;;;;;;5008105;28;20049;-59
2023/09/16 05:36:52;;;;;;;15.82;12.85;;;12.30;99.90;;;;;;4992411;28;20053;-59
2023/09/16 05:39:18;;;;;;;14.80;13.02;;;12.40;99.90;;;;;;5007118;28;20099;-60
2023/09/16 05:41:43;;;;;;;11.90;10.23;;;12.40;99.90;;;;;;5007844;28;20042;-59
2023/09/16 05:44:09;;;;;;;11.25;8.85;;;12.40;99.90;;;;;;5003224;28;20030;-60
2023/09/16 05:46:35;;;;;;;10.07;9.05;;;12.40;99.90;;;;;;5009487;28;20034;-60
2023/09/16 05:49:08;;;;;;;12.65;9.48;;;12.40;99.90;;;;;;5006336;28;20052;-59
2023/09/16 05:51:34;;;;;;;15.95;9.70;;;12.50;99.90;;;;;;5007796;28;20046;-59
2023/09/16 05:54:00;;;;;;;11.07;9.18;;;12.50;99.90;;;;;;5006741;28;20037;-60
2023/09/16 05:56:26;;;;;;;9.93;8.88;;;12.50;99.90;;;;;;4991349;28;20053;-58
2023/09/16 05:58:51;;;;;;;12.00;8.95;;;12.50;99.90;;;;;;5009837;28;20179;-59
2023/09/16 06:01:17;;;;;;;13.40;10.32;;;12.50;99.90;;;;;;5006298;28;20038;-59
2023/09/16 06:03:43;;;;;;;16.35;13.13;;;12.50;99.90;;;;;;5008531;28;20057;-58
2023/09/16 06:06:09;;;;;;;18.15;13.95;;;12.60;99.90;;;;;;4987431;28;20041;-60
2023/09/16 06:08:35;;;;;;;17.23;13.88;;;12.60;99.90;;;;;;5011303;28;20036;-60
2023/09/16 06:11:00;;;;;;;16.67;12.70;;;12.60;99.90;;;;;;5004531;28;20049;-60
2023/09/16 06:13:26;;;;;;;15.65;13.10;;;12.70;99.90;;;;;;5010385;28;20042;-60
2023/09/16 06:15:52;;;;;;;16.45;12.82;;;12.70;99.90;;;;;;5012055;28;20406;-59
2023/09/16 06:18:18;;;;;;;18.20;14.48;;;12.70;99.90;;;;;;5010201;28;20050;-60
2023/09/16 06:20:44;;;;;;;18.80;15.27;;;12.80;99.90;;;;;;5007801;28;20054;-60
2023/09/16 06:23:10;;;;;;;22.80;18.27;;;12.90;99.90;;;;;;5008213;28;20107;-59
2023/09/16 06:25:36;;;;;;;28.85;21.40;;;12.90;99.90;;;;;;5010141;28;20037;-59
2023/09/16 06:28:03;;;;;;;27.10;20.58;;;13.00;99.90;;;;;;4990665;28;20397;-60
2023/09/16 06:30:30;;;;;;;29.50;20.95;;;13.20;99.90;;;;;;5011504;28;20481;-59
2023/09/16 06:32:57;;;;;;;28.73;21.42;;;13.30;99.90;;;;;;4997421;28;20091;-59
2023/09/16 06:35:23;;;;;;;27.23;21.88;;;13.30;99.90;;;;;;5012373;28;22386;-59
2023/09/16 06:37:50;;;;;;;31.50;24.48;;;13.40;99.90;;;;;;5012189;28;20046;-60
2023/09/16 06:40:17;;;;;;;32.90;23.88;;;13.50;99.90;;;;;;5015438;28;20041;-59
2023/09/16 06:42:43;;;;;;;35.55;24.25;;;13.60;99.90;;;;;;4996192;28;20497;-59
2023/09/16 06:45:09;;;;;;;31.58;23.67;;;13.70;99.90;;;;;;5015892;28;20120;-59
2023/09/16 06:47:35;;;;;;;30.65;22.50;;;13.80;99.90;;;;;;5015591;28;20607;-60
2023/09/16 06:50:01;;;;;;;27.75;22.58;;;13.90;99.90;;;;;;5010347;28;20037;-59
2023/09/16 06:52:28;;;;;;;27.20;23.10;;;13.90;99.90;;;;;;5014173;28;20088;-59
2023/09/16 06:54:54;;;;;;;29.50;23.13;;;14.00;99.90;;;;;;5012835;28;20038;-59
2023/09/16 06:57:20;;;;;;;26.42;21.95;;;14.10;99.90;;;;;;5012190;28;20095;-60
2023/09/16 06:59:49;;;;;;;25.25;21.00;;;14.10;99.90;;;;;;5014590;28;20076;-59
2023/09/16 07:02:16;;;;;;;30.63;23.50;;;14.20;99.90;;;;;;4989793;28;20041;-59
2023/09/16 07:04:42;;;;;;;32.25;22.75;;;14.20;99.90;;;;;;5008717;28;20413;-60
2023/09/16 07:07:12;;;;;;;32.17;23.88;;;14.30;99.90;;;;;;5009324;28;20053;-59
2023/09/16 07:09:38;;;;;;;31.02;22.98;;;14.40;99.90;;;;;;5006273;28;20045;-60
2023/09/16 07:12:05;;;;;;;28.20;21.95;;;14.40;99.90;;;;;;4994807;28;20103;-58
2023/09/16 07:14:31;;;;;;;29.83;22.50;;;14.50;99.90;;;;;;4986361;28;20925;-59
2023/09/16 07:16:57;;;;;;;25.55;21.85;;;14.60;99.90;;;;;;4993800;28;20042;-59
2023/09/16 07:19:23;;;;;;;24.58;20.77;;;14.60;99.90;;;;;;4996126;28;20387;-60
2023/09/16 07:21:48;;;;;;;24.67;20.45;;;14.70;99.90;;;;;;5007880;28;20069;-59
2023/09/16 07:24:14;;;;;;;24.50;19.48;;;14.80;99.90;;;;;;5008213;28;20567;-59
2023/09/16 07:26:43;;;;;;;24.20;18.80;;;14.90;99.90;;;;;;5009349;28;20046;-59
2023/09/16 07:29:09;;;;;;;26.15;20.08;;;15.00;99.90;;;;;;5008440;28;21272;-59
2023/09/16 07:31:35;;;;;;;26.25;19.95;;;15.10;99.90;;;;;;5009955;28;20051;-60
2023/09/16 07:34:01;;;;;;;27.65;18.55;;;15.20;99.90;;;;;;4980177;28;20139;-59
2023/09/16 07:36:27;;;;;;;22.92;17.48;;;15.20;99.90;;;;;;5008491;28;20046;-60
2023/09/16 07:38:52;;;;;;;24.15;17.35;;;15.40;99.90;;;;;;4993603;28;20054;-59
2023/09/16 07:41:18;;;;;;;23.50;17.27;;;15.50;99.90;;;;;;4995766;28;20046;-59
2023/09/16 07:43:44;;;;;;;21.30;16.75;;;15.60;99.90;;;;;;5007097;28;20528;-59
2023/09/16 07:46:10;;;;;;;22.52;17.45;;;15.70;99.90;;;;;;5009280;28;20041;-59
2023/09/16 07:48:35;;;;;;;23.55;17.58;;;15.90;99.90;;;;;;5005728;28;20124;-60
2023/09/16 07:51:01;;;;;;;21.40;16.75;;;16.00;99.90;;;;;;5000854;28;20051;-59
2023/09/16 07:53:27;;;;;;;23.45;16.42;;;16.20;99.90;;;;;;5006886;28;20615;-60
2023/09/16 07:55:52;;;;;;;19.95;15.75;;;16.30;99.90;;;;;;5006152;28;20049;-58
2023/09/16 07:58:18;;;;;;;19.23;15.38;;;16.50;99.90;;;;;;4993109;28;20095;-59
2023/09/16 08:00:44;;;;;;;19.30;14.73;;;16.60;99.90;;;;;;5004363;28;20098;-60
2023/09/16 08:03:09;;;;;;;18.23;14.52;;;16.80;99.90;;;;;;5009474;28;20121;-59
2023/09/16 08:05:35;;;;;;;20.60;14.95;;;16.90;99.90;;;;;;4999068;28;20169;-59
2023/09/16 08:08:02;;;;;;;18.38;15.15;;;17.10;99.90;;;;;;5010549;28;20048;-60
2023/09/16 08:10:28;;;;;;;17.23;14.55;;;17.20;99.90;;;;;;5011150;28;20125;-60
2023/09/16 08:12:54;;;;;;;20.05;13.88;;;17.30;99.90;;;;;;5006098;28;20049;-59
2023/09/16 08:15:19;;;;;;;22.25;16.70;;;17.50;99.90;;;;;;5012322;28;20094;-59
2023/09/16 08:17:45;;;;;;;17.05;14.30;;;17.60;99.90;;;;;;4981869;28;21013;-61
2023/09/16 08:20:11;;;;;;;18.50;15.55;;;17.80;99.90;;;;;;5005914;28;20457;-60
2023/09/16 08:22:37;;;;;;;17.38;13.85;;;17.90;99.90;;;;;;5003589;28;20074;-59
2023/09/16 08:25:03;;;;;;;15.95;12.98;;;18.00;99.90;;;;;;4996118;28;20041;-60
2023/09/16 08:27:29;;;;;;;15.43;12.90;;;18.20;99.90;;;;;;5013095;28;20053;-59
2023/09/16 08:29:55;;;;;;;15.27;12.35;;;18.30;99.90;;;;;;5014948;28;20702;-59
2023/09/16 08:32:23;;;;;;;15.63;13.07;;;18.50;99.90;;;;;;5013602;28;20041;-59
2023/09/16 08:34:50;;;;;;;17.63;12.40;;;18.60;99.90;;;;;;5004531;28;20159;-59
2023/09/16 08:37:17;;;;;;;14.20;12.15;;;18.80;99.90;;;;;;5010993;28;20037;-60
2023/09/16 08:39:43;;;;;;;17.90;12.32;;;18.90;99.90;;;;;;5011342;28;20401;-60
2023/09/16 08:42:35;;;;;;;16.35;12.70;;;19.00;99.90;;;;;;4995570;28;20553;-58
2023/09/16 08:45:04;;;;;;;15.38;12.63;;;19.20;99.90;;;;;;5009605;28;20037;-59
2023/09/16 08:47:39;;;;;;;14.32;12.20;;;19.30;99.90;;;;;;5014018;28;20596;-59
2023/09/16 08:50:07;;;;;;;15.25;11.15;;;19.50;99.90;;;;;;5014299;28;20128;-60
2023/09/16 08:52:58;;;;;;;15.07;11.27;;;19.60;99.90;;;;;;5001773;28;20042;-59
2023/09/16 08:55:24;;;;;;;12.63;10.80;;;19.70;99.90;;;;;;4997009;28;20099;-60
2023/09/16 08:57:55;;;;;;;14.13;10.48;;;19.90;99.90;;;;;;5010411;28;20042;-58
2023/09/16 09:00:21;;;;;;;15.05;11.13;;;20.10;99.90;;;;;;5012558;28;20076;-60
2023/09/16 09:02:50;;;;;;;12.43;10.18;;;20.30;99.90;;;;;;5008693;28;20508;-59
2023/09/16 09:05:16;;;;;;;17.38;10.38;;;20.40;99.90;;;;;;4990709;28;20053;-59
2023/09/16 09:07:43;;;;;;;13.32;10.35;;;20.60;99.90;;;;;;5010435;28;20450;-62
2023/09/16 09:10:11;;;;;;;16.02;10.07;;;20.70;99.90;;;;;;5004293;28;20478;-59
2023/09/16 09:12:39;;;;;;;12.35;10.57;;;20.80;99.90;;;;;;4994447;28;20049;-59
2023/09/16 09:15:10;;;;;;;12.85;10.00;;;21.00;99.90;;;;;;5011303;28;20091;-60
2023/09/16 09:17:39;;;;;;;14.95;10.88;;;21.10;99.90;;;;;;5010765;28;20474;-58
2023/09/16 09:20:08;;;;;;;10.25;9.00;;;21.30;99.90;;;;;;5011747;28;20046;-60
2023/09/16 09:22:37;;;;;;;15.25;10.23;;;21.40;99.90;;;;;;4998600;28;20421;-58
2023/09/16 09:25:03;;;;;;;11.20;9.30;;;21.50;99.90;;;;;;4998988;28;20049;-60
2023/09/16 09:27:29;;;;;;;10.55;8.98;;;21.70;99.90;;;;;;4995905;28;20041;-60
2023/09/16 09:29:54;;;;;;;11.63;9.13;;;21.80;99.90;;;;;;4986670;28;20045;-61
2023/09/16 09:32:21;;;;;;;10.18;8.35;;;22.00;99.90;;;;;;5007240;28;20144;-59
2023/09/16 09:34:47;;;;;;;9.30;8.20;;;22.10;99.90;;;;;;4993899;28;20520;-59
2023/09/16 09:37:16;;;;;;;12.00;8.35;;;22.20;99.90;;;;;;5006471;28;20072;-59
2023/09/16 09:39:42;;;;;;;13.07;9.13;;;22.30;99.90;;;;;;5011006;28;20038;-60
2023/09/16 09:42:08;;;;;;;12.77;8.52;;;22.40;99.90;;;;;;5009703;28;20462;-59
2023/09/16 09:44:34;;;;;;;10.00;8.65;;;22.50;99.90;;;;;;5012449;28;20034;-59
2023/09/16 09:47:00;;;;;;;9.20;7.53;;;22.60;99.90;;;;;;5002632;28;20577;-60
2023/09/16 09:49:27;;;;;;;18.85;8.77;;;22.70;99.90;;;;;;5008559;28;20042;-60
2023/09/16 09:51:53;;;;;;;9.40;7.70;;;22.80;99.90;;;;;;5005222;28;20033;-59
2023/09/16 09:54:19;;;;;;;10.48;7.43;;;22.90;99.90;;;;;;5010441;28;20053;-60
2023/09/16 09:56:46;;;;;;;9.43;6.97;;;22.90;99.90;;;;;;5010627;28;20045;-60
2023/09/16 09:59:12;;;;;;;8.38;6.32;;;23.00;99.90;;;;;;4993334;28;20123;-59
2023/09/16 10:01:41;;;;;;;9.77;7.78;;;23.20;99.90;;;;;;5005944;28;20042;-59
2023/09/16 10:04:07;;;;;;;8.93;6.10;;;23.30;99.40;;;;;;4998746;28;20068;-60
2023/09/16 10:06:33;;;;;;;6.50;5.07;;;23.40;99.40;;;;;;5016267;28;20080;-60
2023/09/16 10:08:58;;;;;;;8.50;6.22;;;23.50;99.30;;;;;;5014501;28;20124;-59
2023/09/16 10:11:28;;;;;;;8.32;5.95;;;23.70;98.90;;;;;;5015584;28;20052;-59
2023/09/16 10:13:54;;;;;;;9.93;6.40;;;23.90;98.90;;;;;;5015749;28;20049;-60
2023/09/16 10:16:20;;;;;;;8.63;6.55;;;24.10;98.30;;;;;;5015201;28;20034;-59
2023/09/16 10:18:46;;;;;;;9.32;5.90;;;24.10;97.60;;;;;;5027301;28;20044;-60
2023/09/16 10:21:14;;;;;;;9.43;6.20;;;24.30;97.30;;;;;;5013927;28;20044;-59
2023/09/16 10:23:41;;;;;;;7.20;5.55;;;24.40;97.40;;;;;;5014898;28;20046;-59
2023/09/16 10:26:08;;;;;;;10.13;6.20;;;24.60;97.10;;;;;;5014720;28;20075;-58
2023/09/16 10:28:43;;;;;;;8.80;5.85;;;24.80;96.50;;;;;;5013868;28;20490;-59
2023/09/16 10:31:10;;;;;;;8.32;5.80;;;24.90;96.00;;;;;;5014606;28;20053;-60
2023/09/16 10:33:36;;;;;;;9.35;5.95;;;25.00;95.90;;;;;;5015128;28;20591;-60
2023/09/16 10:36:04;;;;;;;8.60;6.35;;;25.10;96.00;;;;;;4990056;28;20052;-60
2023/09/16 10:38:33;;;;;;;7.97;6.25;;;25.20;95.40;;;;;;5012730;28;20552;-60
2023/09/16 10:40:59;;;;;;;11.32;5.95;;;25.40;94.80;;;;;;5011501;28;20349;-60
2023/09/16 10:43:25;;;;;;;8.63;6.18;;;25.50;94.20;;;;;;5011875;28;20038;-59
2023/09/16 10:45:52;;;;;;;7.78;5.53;;;25.60;93.20;;;;;;5014303;28;20046;-60
2023/09/16 10:48:17;;;;;;;8.45;5.63;;;25.70;93.20;;;;;;5016885;28;20439;-59
2023/09/16 10:50:47;;;;;;;7.60;6.28;;;25.80;92.80;;;;;;5014549;28;20495;-60
2023/09/16 10:53:21;;;;;;;10.65;5.85;;;25.90;92.00;;;;;;5010886;28;20417;-60
2023/09/16 10:55:50;;;;;;;7.88;5.85;;;26.10;91.40;;;;;;5004518;28;20045;-59
2023/09/16 10:58:29;;;;;;;7.88;5.10;;;26.20;90.70;;;;;;4994960;28;20076;-62
2023/09/16 11:00:58;;;;;;;5.82;5.22;;;26.30;90.60;;;;;;5019037;28;20052;-62
2023/09/16 11:03:32;;;;;;;8.27;5.30;;;26.30;90.50;;;;;;4992168;28;20132;-61
2023/09/16 11:06:01;;;;;;;6.50;5.60;;;26.60;90.30;;;;;;5010587;28;20045;-60
2023/09/16 11:08:27;;;;;;;9.80;5.68;;;26.70;89.90;;;;;;5016293;28;20044;-60
2023/09/16 11:10:55;;;;;;;7.28;5.78;;;26.80;88.70;;;;;;5013400;28;20029;-60
2023/09/16 11:13:24;;;;;;;8.38;5.20;;;26.90;87.80;;;;;;5011247;28;20076;-60
2023/09/16 11:15:50;;;;;;;8.52;5.68;;;27.00;88.60;;;;;;4996967;28;20162;-61
2023/09/16 11:18:18;;;;;;;7.47;5.47;;;27.10;87.00;;;;;;4990548;28;20425;-60
2023/09/16 11:20:45;;;;;;;6.57;5.05;;;27.20;84.30;;;;;;5005397;28;20040;-59
2023/09/16 11:23:12;;;;;;;8.13;4.88;;;27.20;84.20;;;;;;5010215;28;20176;-60
2023/09/16 11:25:40;;;;;;;8.05;4.47;;;27.30;83.60;;;;;;5008334;28;20038;-61
2023/09/16 11:28:16;;;;;;;6.38;4.53;;;27.40;83.50;;;;;;5011228;28;20073;-59
2023/09/16 11:31:01;;;;;;;7.80;5.30;;;27.50;82.70;;;;;;5010319;28;20037;-61
2023/09/16 11:33:37;;;;;;;6.85;5.47;;;27.60;81.80;;;;;;5007596;28;20160;-59
2023/09/16 11:36:14;;;;;;;10.65;5.50;;;27.70;81.00;;;;;;5007474;28;20049;-61
2023/09/16 11:38:52;;;;;;;6.20;4.80;;;27.70;80.20;;;;;;5015148;28;20537;-59
2023/09/16 11:41:18;;;;;;;5.32;4.18;;;27.70;80.60;;;;;;4994353;28;20042;-60
2023/09/16 11:43:44;;;;;;;6.93;4.07;;;27.90;81.30;;;;;;5007343;28;20400;-60
2023/09/16 11:46:12;;;;;;;6.38;3.92;;;28.10;80.00;;;;;;5007659;28;20041;-61
2023/09/16 11:48:50;;;;;;;4.95;3.25;;;28.30;77.70;;;;;;5010063;28;20065;-62
2023/09/16 11:51:16;;;;;;;5.57;4.05;;;28.50;77.30;;;;;;5010365;28;20140;-61
2023/09/16 11:53:43;;;;;;;9.50;3.97;;;28.50;75.40;;;;;;5009758;28;20591;-62
2023/09/16 11:56:09;;;;;;;5.82;3.70;;;28.60;74.30;;;;;;5009820;28;20041;-62
2023/09/16 11:58:35;;;;;;;6.15;4.10;;;28.50;73.10;;;;;;4997891;28;20500;-62
2023/09/16 12:01:02;;;;;;;6.57;3.42;;;28.50;72.60;;;;;;5009741;28;20076;-61
2023/09/16 12:03:29;;;;;;;5.50;3.35;;;28.50;72.70;;;;;;5008117;28;20038;-62
2023/09/16 12:05:55;;;;;;;5.68;3.33;;;28.60;72.10;;;;;;5010833;28;20081;-61
2023/09/16 12:08:23;;;;;;;6.85;3.60;;;28.60;71.20;;;;;;5013080;28;20030;-62
2023/09/16 12:10:49;;;;;;;3.42;2.88;;;28.40;70.00;;;;;;5009897;28;20077;-61
2023/09/16 12:13:29;;;;;;;5.30;3.10;;;28.30;70.60;;;;;;5010396;28;20045;-61
2023/09/16 12:15:54;;;;;;;5.13;3.55;;;28.30;70.70;;;;;;5008708;28;20220;-61
2023/09/16 12:18:20;;;;;;;5.20;3.10;;;28.20;70.30;;;;;;4982284;28;20040;-60
2023/09/16 12:20:47;;;;;;;4.65;2.90;;;28.00;70.90;;;;;;5008704;28;20516;-60
2023/09/16 12:23:16;;;;;;;3.97;2.63;;;28.10;72.40;;;;;;5009739;28;20045;-60
2023/09/16 12:25:43;;;;;;;6.10;2.90;;;28.30;72.20;;;;;;5025180;28;20037;-60
2023/09/16 12:28:20;;;;;;;4.97;2.60;;;28.40;70.20;;;;;;5004809;28;20397;-60
2023/09/16 12:30:50;;;;;;;3.65;2.50;;;28.30;67.80;;;;;;5016582;28;20042;-60
2023/09/16 12:33:21;;;;;;;5.40;3.00;;;28.10;67.70;;;;;;5000121;28;20061;-57
2023/09/16 12:35:49;;;;;;;3.92;2.60;;;27.90;67.60;;;;;;4989218;28;20048;-56